Time;durP1;ratioP1;P1;durP2;ratioP2;P2;SDS_P1;SDS_P2;PMS_P1;PMS_P2;Temp;Humidity;BMP_temperature;BMP_pressure;BME280_temperature;BME280_humidity;BME280_pressure;Samples;Min_cycle;Max_cycle;Signal;HPM_P1;HPM_P2
2021/09/14 00:02:21;;;;;;;14.50;12.50;;;;;;;13.68;71.79;100738.02;115959;1198;22271;-85
2021/09/14 00:04:55;;;;;;;16.00;14.20;;;;;;;13.62;71.74;100740.70;115693;1202;21906;-82
2021/09/14 00:07:24;;;;;;;16.30;14.50;;;;;;;13.58;71.83;100742.14;115954;1201;21905;-83
2021/09/14 00:09:55;;;;;;;16.10;14.20;;;;;;;13.55;72.02;100737.46;116002;1200;22805;-82
2021/09/14 00:12:27;;;;;;;21.50;17.10;;;;;;;13.53;72.06;100741.23;115912;1197;22919;-81
2021/09/14 00:14:56;;;;;;;22.60;17.90;;;;;;;13.51;72.11;100743.61;115227;1205;23572;-83
2021/09/14 00:17:26;;;;;;;19.90;15.80;;;;;;;13.47;72.01;100741.83;115191;1206;21928;-81
2021/09/14 00:19:55;;;;;;;18.50;14.80;;;;;;;13.43;71.94;100741.79;115254;1201;23454;-82
2021/09/14 00:22:29;;;;;;;16.50;14.80;;;;;;;13.38;71.98;100745.30;115135;1200;21914;-81
2021/09/14 00:24:58;;;;;;;15.70;13.80;;;;;;;13.33;71.93;100746.30;115058;1200;21919;-82
2021/09/14 00:27:28;;;;;;;17.00;14.80;;;;;;;13.28;72.05;100743.67;115160;1203;21915;-81
2021/09/14 00:29:57;;;;;;;15.00;13.50;;;;;;;13.23;72.11;100745.98;115155;1207;21951;-81
2021/09/14 00:32:27;;;;;;;14.00;12.50;;;;;;;13.17;71.94;100748.91;115186;1204;21921;-82
2021/09/14 00:34:56;;;;;;;17.20;12.70;;;;;;;13.11;72.01;100749.73;115485;1204;21912;-80
2021/09/14 00:37:26;;;;;;;17.40;13.80;;;;;;;13.07;72.23;100752.52;115712;1200;22057;-81
2021/09/14 00:39:56;;;;;;;18.80;13.10;;;;;;;13.04;72.27;100755.55;115625;1198;21897;-82
2021/09/14 00:42:25;;;;;;;17.90;14.70;;;;;;;13.01;72.49;100755.41;115454;1203;23648;-82
2021/09/14 00:44:54;;;;;;;15.20;13.50;;;;;;;12.99;72.69;100758.93;115328;1204;23386;-80
2021/09/14 00:47:24;;;;;;;14.90;13.40;;;;;;;12.98;72.86;100759.27;115477;1204;21950;-81
2021/09/14 00:49:54;;;;;;;18.40;16.50;;;;;;;12.99;73.07;100759.13;115447;1203;22041;-82
2021/09/14 00:52:23;;;;;;;16.40;14.70;;;;;;;12.98;73.17;100755.66;115563;1202;21997;-82
2021/09/14 00:54:53;;;;;;;17.00;15.20;;;;;;;13.00;73.24;100753.06;115149;1204;22967;-81
2021/09/14 00:57:22;;;;;;;18.80;15.60;;;;;;;13.00;73.33;100754.73;115080;1203;21910;-82
2021/09/14 00:59:52;;;;;;;15.90;14.40;;;;;;;13.00;73.38;100757.89;115176;1200;22933;-82
2021/09/14 01:02:21;;;;;;;16.80;14.20;;;;;;;13.01;73.47;100758.36;115124;1203;21915;-82
2021/09/14 01:04:51;;;;;;;15.30;13.60;;;;;;;13.01;73.54;100754.25;115144;1204;22415;-82
2021/09/14 01:07:21;;;;;;;15.90;14.10;;;;;;;13.00;73.47;100752.95;115107;1205;21939;-82
2021/09/14 01:09:51;;;;;;;14.70;13.20;;;;;;;13.00;73.53;100757.39;115053;1206;21906;-82
2021/09/14 01:12:21;;;;;;;17.20;13.80;;;;;;;13.01;73.73;100758.14;114633;1209;22244;-82
2021/09/14 01:14:58;;;;;;;13.50;12.10;;;;;;;13.01;73.74;100756.97;114810;1209;21918;-81
2021/09/14 01:17:28;;;;;;;15.70;14.20;;;;;;;13.02;73.88;100757.36;114735;1209;21933;-82
2021/09/14 01:19:59;;;;;;;14.60;13.10;;;;;;;13.04;73.98;100757.45;114749;1206;21929;-81
2021/09/14 01:22:33;;;;;;;18.40;13.90;;;;;;;13.06;73.99;100755.68;114729;1209;21953;-81
2021/09/14 01:25:16;;;;;;;16.30;14.30;;;;;;;13.07;74.05;100757.86;114824;1210;22936;-84
2021/09/14 01:27:47;;;;;;;16.00;14.40;;;;;;;13.08;74.11;100755.36;114826;1208;24415;-81
2021/09/14 01:30:22;;;;;;;16.20;14.50;;;;;;;13.11;74.24;100754.71;114866;1203;21928;-82
2021/09/14 01:32:55;;;;;;;14.60;13.00;;;;;;;13.14;74.39;100754.36;114905;1208;21927;-82
2021/09/14 01:35:31;;;;;;;16.90;15.10;;;;;;;13.17;74.30;100750.48;114968;1208;21934;-82
2021/09/14 01:38:03;;;;;;;16.90;15.20;;;;;;;13.21;74.51;100750.30;115274;1201;21908;-82
2021/09/14 01:40:36;;;;;;;15.00;13.50;;;;;;;13.25;74.56;100749.50;115398;1200;22085;-81
2021/09/14 01:43:10;;;;;;;16.10;14.40;;;;;;;13.28;74.58;100748.75;115643;1200;22622;-82
2021/09/14 01:45:39;;;;;;;17.10;15.30;;;;;;;13.31;74.56;100748.77;115553;1200;22659;-81
2021/09/14 01:48:12;;;;;;;16.50;14.50;;;;;;;13.33;74.44;100750.14;115427;1203;22933;-82
2021/09/14 01:50:42;;;;;;;16.60;14.90;;;;;;;13.34;74.43;100748.05;115575;1198;22291;-82
2021/09/14 01:53:11;;;;;;;18.80;14.50;;;;;;;13.36;74.42;100744.85;115455;1203;22844;-82
2021/09/14 01:55:41;;;;;;;16.70;14.90;;;;;;;13.38;74.46;100746.16;115381;1203;22942;-81
2021/09/14 01:58:12;;;;;;;15.60;14.20;;;;;;;13.40;74.45;100746.69;115708;1201;22926;-81
2021/09/14 03:00:58;;;;;;;17.20;15.40;;;;;;;13.28;74.85;100752.59;115514;1204;21910;-81
2021/09/14 03:03:30;;;;;;;18.00;15.90;;;;;;;13.29;74.85;100752.69;115557;1202;21905;-81
2021/09/14 03:05:59;;;;;;;16.70;14.80;;;;;;;13.30;74.94;100749.77;115590;1203;21913;-81
2021/09/14 03:08:29;;;;;;;17.50;15.60;;;;;;;13.30;74.93;100748.51;115643;1201;21919;-80
2021/09/14 03:11:08;;;;;;;18.20;16.20;;;;;;;13.31;74.99;100749.46;115667;1201;21898;-81
2021/09/14 03:13:41;;;;;;;16.10;14.60;;;;;;;13.31;75.07;100747.70;116010;1200;22346;-82
2021/09/14 03:16:16;;;;;;;16.00;14.50;;;;;;;13.31;74.99;100747.36;115955;1200;21928;-81
2021/09/14 03:18:45;;;;;;;16.30;14.80;;;;;;;13.31;75.08;100750.02;115942;1201;23585;-81
2021/09/14 03:21:15;;;;;;;15.60;14.00;;;;;;;13.32;75.11;100747.92;115581;1202;22643;-80
2021/09/14 03:23:45;;;;;;;19.30;14.60;;;;;;;13.33;75.16;100746.02;115844;1196;21908;-80
2021/09/14 03:26:15;;;;;;;16.30;13.90;;;;;;;13.34;75.21;100750.14;115941;1201;21906;-81
2021/09/14 03:28:44;;;;;;;18.00;15.00;;;;;;;13.35;75.36;100745.09;116041;1201;22923;-82
2021/09/14 03:31:15;;;;;;;15.60;14.20;;;;;;;13.36;75.34;100748.69;115335;1204;23025;-81
2021/09/14 03:33:47;;;;;;;17.80;15.80;;;;;;;13.38;75.37;100750.84;115348;1204;21898;-81
2021/09/14 03:36:16;;;;;;;17.60;13.90;;;;;;;13.39;75.36;100752.30;115606;1203;21919;-81
2021/09/14 03:38:47;;;;;;;16.50;14.80;;;;;;;13.39;75.42;100753.98;115528;1203;21891;-80
2021/09/14 03:41:16;;;;;;;21.30;15.60;;;;;;;13.40;75.45;100754.92;115433;1200;21946;-80
2021/09/14 03:43:45;;;;;;;16.90;15.10;;;;;;;13.42;75.39;100757.61;115438;1203;23656;-81
2021/09/14 03:46:15;;;;;;;16.40;14.70;;;;;;;13.43;75.42;100756.95;115411;1203;24072;-82
2021/09/14 03:48:45;;;;;;;17.20;14.70;;;;;;;13.45;75.45;100756.20;115127;1205;21917;-81
2021/09/14 03:51:15;;;;;;;16.20;14.70;;;;;;;13.45;75.44;100755.67;115590;1202;23487;-82
2021/09/14 03:53:45;;;;;;;18.30;15.30;;;;;;;13.45;75.43;100752.98;115628;1203;21997;-82
2021/09/14 03:56:17;;;;;;;17.50;15.40;;;;;;;13.47;75.52;100757.75;115647;1203;24158;-81
2021/09/14 03:58:47;;;;;;;19.20;15.60;;;;;;;13.48;75.57;100758.90;115604;1201;23612;-82
2021/09/14 04:01:16;;;;;;;16.00;14.30;;;;;;;13.48;75.52;100755.31;115674;1201;22307;-80
2021/09/14 04:03:58;;;;;;;16.50;14.80;;;;;;;13.49;75.54;100756.48;115530;1203;21897;-81
2021/09/14 04:06:54;;;;;;;18.20;15.40;;;;;;;13.49;75.54;100759.42;115322;1200;22001;-81
2021/09/14 04:09:24;;;;;;;18.10;14.80;;;;;;;13.50;75.71;100760.90;115709;1201;21963;-82
2021/09/14 04:11:57;;;;;;;19.10;16.80;;;;;;;13.52;75.68;100761.89;115570;1201;22939;-82
2021/09/14 04:14:29;;;;;;;17.40;15.50;;;;;;;13.54;75.72;100761.88;115173;1204;23453;-81
2021/09/14 04:17:01;;;;;;;16.40;14.90;;;;;;;13.56;75.76;100762.65;115059;1206;21931;-82
2021/09/14 04:19:31;;;;;;;15.80;14.20;;;;;;;13.57;75.73;100760.21;115030;1208;22290;-82
2021/09/14 04:22:04;;;;;;;16.40;14.00;;;;;;;13.60;75.77;100756.95;115174;1206;22022;-83
2021/09/14 04:24:38;;;;;;;15.90;14.30;;;;;;;13.60;75.70;100761.33;115250;1203;22544;-82
2021/09/14 04:27:09;;;;;;;16.60;13.90;;;;;;;13.60;75.64;100759.17;115259;1207;21913;-83
2021/09/14 04:29:40;;;;;;;22.80;17.30;;;;;;;13.61;75.70;100755.91;115241;1207;22223;-82
2021/09/14 04:32:10;;;;;;;22.50;20.30;;;;;;;13.61;75.53;100756.27;115380;1204;21908;-81
2021/09/14 04:34:42;;;;;;;21.60;17.50;;;;;;;13.60;75.50;100758.80;115847;1203;22886;-81
2021/09/14 04:37:14;;;;;;;17.30;14.60;;;;;;;13.61;75.47;100761.80;115256;1204;21898;-83
2021/09/14 04:39:46;;;;;;;17.00;15.40;;;;;;;13.61;75.62;100764.91;115171;1205;22251;-80
2021/09/14 04:42:16;;;;;;;20.30;15.30;;;;;;;13.62;75.56;100763.20;115324;1203;23493;-79
2021/09/14 04:44:46;;;;;;;17.70;15.30;;;;;;;13.63;75.64;100765.39;115621;1203;24109;-79
2021/09/14 04:47:15;;;;;;;25.50;18.50;;;;;;;13.64;75.67;100766.05;115362;1203;23565;-81
2021/09/14 04:49:45;;;;;;;19.50;17.30;;;;;;;13.64;75.70;100764.55;115936;1201;21958;-82
2021/09/14 04:52:14;;;;;;;23.70;17.80;;;;;;;13.66;75.75;100768.09;115650;1203;21915;-82
2021/09/14 04:54:46;;;;;;;19.40;17.50;;;;;;;13.68;75.68;100773.06;115665;1197;21797;-83
2021/09/14 04:57:15;;;;;;;;;;;;;;;13.70;75.80;100773.91;115189;1206;21919;-83
2021/09/14 04:59:48;;;;;;;18.60;16.80;;;;;;;13.64;76.01;100775.89;115337;1204;21901;-82
2021/09/14 05:02:17;;;;;;;22.60;18.00;;;;;;;13.66;76.03;100777.65;115429;1202;23558;-82
2021/09/14 05:04:48;;;;;;;25.60;18.10;;;;;;;13.71;75.97;100779.04;115934;1195;22922;-81
2021/09/14 05:07:18;;;;;;;27.10;18.70;;;;;;;13.76;75.96;100776.91;116047;1201;22653;-83
2021/09/14 05:09:48;;;;;;;28.20;19.00;;;;;;;13.80;75.91;100779.55;115255;1201;21928;-82
2021/09/14 05:12:19;;;;;;;23.10;19.00;;;;;;;13.85;75.97;100780.38;115512;1199;21900;-87
2021/09/14 05:14:52;;;;;;;22.30;17.80;;;;;;;13.89;75.86;100776.70;115358;1204;23566;-82
2021/09/14 05:17:27;;;;;;;19.80;17.90;;;;;;;13.96;75.90;100776.65;115097;1207;21911;-82
2021/09/14 05:20:01;;;;;;;18.90;15.20;;;;;;;14.01;75.78;100781.76;115082;1207;21930;-82
2021/09/14 05:22:33;;;;;;;25.70;18.00;;;;;;;14.07;75.86;100777.46;115074;1207;21881;-82
2021/09/14 05:25:03;;;;;;;23.60;18.20;;;;;;;14.15;75.80;100775.19;115040;1209;21942;-81
2021/09/14 05:27:33;;;;;;;22.60;17.40;;;;;;;14.22;75.73;100772.71;114950;1207;24071;-82
2021/09/14 05:30:03;;;;;;;27.80;19.80;;;;;;;14.29;75.55;100775.27;115145;1203;21921;-81
2021/09/14 05:32:34;;;;;;;33.00;20.70;;;;;;;14.34;75.48;100771.95;115002;1209;21933;-82
2021/09/14 05:35:07;;;;;;;33.00;26.40;;;;;;;14.40;75.43;100775.48;114938;1209;21941;-83
2021/09/14 05:37:37;;;;;;;31.10;21.10;;;;;;;14.47;75.40;100776.76;114883;1212;21933;-82
2021/09/14 05:40:07;;;;;;;34.00;21.20;;;;;;;14.53;75.10;100777.94;114675;1211;22943;-82
2021/09/14 05:42:39;;;;;;;33.20;21.70;;;;;;;14.58;75.11;100781.20;114465;1214;21949;-82
2021/09/14 05:45:12;;;;;;;22.80;19.90;;;;;;;14.61;74.84;100776.91;114623;1213;23482;-80
2021/09/14 05:47:42;;;;;;;25.20;20.70;;;;;;;14.66;74.81;100777.63;114589;1211;21935;-81
2021/09/14 05:50:11;;;;;;;70.40;27.70;;;;;;;14.71;74.81;100776.98;114556;1211;22000;-80
2021/09/14 05:52:42;;;;;;;26.40;20.10;;;;;;;14.76;74.63;100779.81;114682;1209;24805;-80
2021/09/14 05:55:12;;;;;;;23.70;19.80;;;;;;;14.79;74.41;100778.02;114931;1205;21962;-79
2021/09/14 05:57:42;;;;;;;24.30;19.70;;;;;;;14.79;74.18;100774.65;115198;1200;23560;-80
2021/09/14 06:00:11;;;;;;;25.80;21.80;;;;;;;14.80;74.23;100778.03;115583;1201;23460;-79
2021/09/14 06:02:41;;;;;;;22.90;20.50;;;;;;;14.87;74.53;100779.38;115739;1198;21895;-80
2021/09/14 06:05:11;;;;;;;24.20;20.60;;;;;;;14.95;74.81;100781.33;115329;1203;22146;-78
2021/09/14 06:07:42;;;;;;;23.90;21.30;;;;;;;15.06;75.05;100781.59;115949;1200;21875;-80
2021/09/14 06:10:12;;;;;;;25.30;20.20;;;;;;;15.19;74.90;100783.20;116007;1198;23483;-80
2021/09/14 06:12:54;;;;;;;28.90;21.80;;;;;;;15.28;74.36;100782.98;115873;1198;21890;-80
2021/09/14 06:15:24;;;;;;;21.90;19.60;;;;;;;15.38;74.44;100779.61;116074;1193;21891;-80
2021/09/14 06:17:53;;;;;;;29.10;19.70;;;;;;;15.58;74.96;100780.89;115803;1198;22907;-77
2021/09/14 06:20:22;;;;;;;29.50;19.60;;;;;;;15.89;75.73;100783.80;115798;1200;21925;-78
2021/09/14 06:22:51;;;;;;;19.40;17.10;;;;;;;16.31;76.05;100783.71;115747;1201;22982;-78
2021/09/14 06:25:20;;;;;;;21.10;17.30;;;;;;;16.72;75.25;100785.88;115718;1202;22853;-76
2021/09/14 06:27:50;;;;;;;23.40;17.30;;;;;;;17.13;74.18;100790.46;115695;1201;21907;-77
2021/09/14 06:30:20;;;;;;;28.60;17.10;;;;;;;17.51;73.50;100793.69;115730;1201;23945;-78
2021/09/14 06:32:49;;;;;;;18.40;14.00;;;;;;;17.94;72.67;100798.61;115794;1199;21936;-77
2021/09/14 06:35:18;;;;;;;19.90;13.90;;;;;;;18.39;71.48;100796.52;115660;1201;21895;-78
2021/09/14 06:37:47;;;;;;;19.20;15.50;;;;;;;18.75;69.35;100794.05;115826;1198;21929;-78
2021/09/14 06:40:17;;;;;;;19.70;12.90;;;;;;;19.07;68.37;100794.27;115690;1198;21935;-77
2021/09/14 06:42:46;;;;;;;14.60;13.20;;;;;;;19.46;67.89;100793.27;115629;1196;23559;-78
2021/09/14 06:45:40;;;;;;;20.10;18.20;;;;;;;19.92;66.64;100795.63;115687;1198;21938;-79
2021/09/14 06:48:16;;;;;;;17.70;12.70;;;;;;;20.30;65.37;100799.67;115713;1198;21903;-79
2021/09/14 06:50:45;;;;;;;14.90;12.10;;;;;;;20.60;63.90;100804.92;115609;1201;22836;-78
2021/09/14 06:53:14;;;;;;;13.00;11.70;;;;;;;20.83;62.56;100805.27;115539;1200;22652;-78
2021/09/14 06:55:43;;;;;;;18.00;12.60;;;;;;;21.03;62.11;100802.13;115623;1200;24169;-78
2021/09/14 06:58:12;;;;;;;14.60;11.90;;;;;;;21.25;61.23;100803.49;115670;1202;21890;-78
2021/09/14 07:00:41;;;;;;;16.20;12.10;;;;;;;21.33;59.64;100807.58;115654;1202;21901;-78
2021/09/14 07:03:10;;;;;;;12.00;10.30;;;;;;;21.50;60.28;100806.11;115803;1198;22089;-77
2021/09/14 07:05:40;;;;;;;15.80;12.10;;;;;;;21.77;60.15;100806.16;115723;1202;23474;-85
2021/09/14 07:08:10;;;;;;;21.80;11.10;;;;;;;22.08;59.21;100806.77;115700;1201;22383;-84
2021/09/14 07:10:40;;;;;;;28.00;11.10;;;;;;;22.36;58.22;100806.70;115527;1202;22731;-84
2021/09/14 07:13:24;;;;;;;13.20;11.20;;;;;;;22.62;57.14;100805.48;116366;1198;21920;-85
2021/09/14 07:16:56;;;;;;;10.80;9.90;;;;;;;22.77;55.07;100806.18;116700;1201;21901;-87
2021/09/14 07:19:31;;;;;;;11.00;9.60;;;;;;;22.82;54.91;100806.67;115786;1202;21924;-85
2021/09/14 07:22:01;;;;;;;10.00;8.90;;;;;;;22.96;55.40;100805.15;115122;1207;22396;-83
2021/09/14 07:24:30;;;;;;;12.80;9.40;;;;;;;23.26;55.51;100808.85;114981;1205;22643;-81
2021/09/14 07:27:00;;;;;;;10.70;9.00;;;;;;;23.62;55.13;100807.42;114949;1205;21903;-82
2021/09/14 07:29:31;;;;;;;11.10;7.20;;;;;;;23.97;53.65;100808.40;114703;1209;21993;-82
2021/09/14 07:32:01;;;;;;;10.20;7.50;;;;;;;24.09;51.74;100812.09;114600;1212;23331;-82
2021/09/14 07:34:31;;;;;;;9.10;7.90;;;;;;;23.93;50.65;100814.18;114308;1215;23562;-81
2021/09/14 07:37:03;;;;;;;19.10;15.10;;;;;;;23.84;50.88;100814.98;114421;1212;21925;-83
2021/09/14 07:39:33;;;;;;;17.40;12.30;;;;;;;23.90;52.04;100816.59;114447;1214;22664;-82
2021/09/14 07:42:03;;;;;;;13.30;8.50;;;;;;;24.05;51.19;100818.13;114432;1212;21935;-82
2021/09/14 07:44:32;;;;;;;10.00;8.00;;;;;;;23.96;50.04;100815.20;114569;1208;23503;-82
2021/09/14 07:47:02;;;;;;;10.60;9.50;;;;;;;23.80;50.28;100813.75;114911;1206;21909;-82
2021/09/14 07:49:32;;;;;;;11.00;7.60;;;;;;;23.84;51.28;100814.61;114988;1208;22280;-83
2021/09/14 07:52:01;;;;;;;12.90;9.00;;;;;;;23.98;51.10;100815.86;115091;1205;21922;-84
2021/09/14 07:54:30;;;;;;;10.20;8.20;;;;;;;24.05;50.42;100818.20;115101;1207;21908;-83
2021/09/14 07:57:01;;;;;;;15.20;8.30;;;;;;;24.16;50.34;100819.13;115264;1202;22285;-82
2021/09/14 07:59:33;;;;;;;9.50;8.50;;;;;;;24.31;50.22;100817.08;115487;1202;21932;-81
2021/09/14 08:02:03;;;;;;;14.50;7.80;;;;;;;24.50;49.91;100822.23;115483;1202;21896;-82
2021/09/14 08:04:32;;;;;;;12.00;7.10;;;;;;;24.77;49.56;100819.79;115136;1206;23513;-83
2021/09/14 08:07:01;;;;;;;10.30;6.20;;;;;;;24.90;47.91;100816.73;115353;1203;21919;-82
2021/09/14 08:09:31;;;;;;;9.10;6.10;;;;;;;24.98;47.64;100820.86;115242;1205;21947;-83
2021/09/14 08:12:00;;;;;;;12.80;8.10;;;;;;;25.17;47.41;100823.76;115306;1203;21983;-82
2021/09/14 08:14:30;;;;;;;11.70;6.70;;;;;;;25.23;46.79;100823.89;115439;1203;24360;-83
2021/09/14 08:16:59;;;;;;;12.70;7.20;;;;;;;25.41;47.53;100826.58;115672;1202;21883;-82
2021/09/14 08:19:29;;;;;;;7.20;5.40;;;;;;;25.72;47.00;100828.39;115474;1202;22060;-83
2021/09/14 08:21:58;;;;;;;13.10;6.30;;;;;;;26.01;45.61;100829.68;115358;1204;21971;-84
2021/09/14 08:24:27;;;;;;;5.80;5.20;;;;;;;26.24;44.26;100826.61;115455;1202;22129;-83
2021/09/14 08:26:56;;;;;;;11.50;5.20;;;;;;;26.41;43.79;100828.67;114951;1207;22979;-83
2021/09/14 08:29:28;;;;;;;8.80;5.10;;;;;;;26.60;43.28;100828.05;115011;1207;22865;-82
2021/09/14 08:31:58;;;;;;;9.10;4.50;;;;;;;26.79;42.88;100830.15;114979;1207;23031;-82
2021/09/14 08:34:28;;;;;;;16.90;4.40;;;;;;;26.93;42.17;100827.88;115025;1204;21902;-83
2021/09/14 08:37:00;;;;;;;10.90;5.20;;;;;;;26.89;41.17;100829.06;115184;1206;21902;-83
2021/09/14 08:39:30;;;;;;;10.80;5.00;;;;;;;26.63;40.69;100827.03;115098;1204;22956;-83
2021/09/14 08:42:00;;;;;;;29.80;6.30;;;;;;;26.32;41.17;100822.65;115294;1203;21955;-82
2021/09/14 08:44:29;;;;;;;11.00;5.60;;;;;;;26.07;42.22;100823.56;115365;1201;23480;-81
2021/09/14 08:47:03;;;;;;;13.00;5.60;;;;;;;25.87;42.38;100825.88;115887;1199;23509;-82
2021/09/14 08:49:34;;;;;;;11.10;5.80;;;;;;;25.51;42.04;100825.75;115956;1201;23045;-82
2021/09/14 08:52:04;;;;;;;6.70;4.90;;;;;;;25.05;42.56;100828.80;115909;1201;22081;-82
2021/09/14 08:54:36;;;;;;;6.50;5.20;;;;;;;24.60;43.52;100825.73;115751;1201;22895;-81
2021/09/14 08:57:06;;;;;;;8.20;5.20;;;;;;;24.27;44.25;100824.09;115445;1203;23027;-83
2021/09/14 08:59:35;;;;;;;9.50;5.50;;;;;;;23.94;44.32;100821.48;115466;1203;21915;-82
2021/09/14 09:02:06;;;;;;;6.80;5.40;;;;;;;23.64;44.88;100820.14;115473;1203;22035;-82
2021/09/14 09:04:35;;;;;;;;;;;;;;;23.40;45.72;100822.07;115044;1205;21920;-82
2021/09/14 09:07:04;;;;;;;9.70;6.20;;;;;;;23.08;46.41;100824.30;114992;1206;22934;-80
2021/09/14 09:09:33;;;;;;;6.40;5.70;;;;;;;22.90;47.33;100822.95;114679;1206;21925;-80
2021/09/14 09:12:08;;;;;;;13.20;5.40;;;;;;;23.09;49.06;100822.96;114971;1207;22272;-80
2021/09/14 09:14:47;;;;;;;6.60;5.20;;;;;;;23.57;49.52;100821.98;114857;1205;21917;-81
2021/09/14 09:17:18;;;;;;;6.80;4.90;;;;;;;23.99;47.77;100822.79;114991;1203;21900;-80
2021/09/14 09:20:06;;;;;;;;;;;;;;;24.20;46.30;100820.54;115049;1201;21884;-80
2021/09/14 09:22:37;;;;;;;6.90;3.10;;;;;;;24.50;46.74;100822.17;115311;1203;21923;-80
2021/09/14 09:25:07;;;;;;;4.20;3.40;;;;;;;24.99;45.78;100821.05;115655;1199;21925;-80
2021/09/14 09:27:36;;;;;;;7.30;3.20;;;;;;;25.48;43.91;100822.95;115914;1196;22865;-80
2021/09/14 09:30:09;;;;;;;4.00;2.20;;;;;;;25.73;42.18;100822.77;115847;1200;21996;-80
2021/09/14 09:32:50;;;;;;;5.10;2.60;;;;;;;25.97;41.29;100824.52;115623;1201;21935;-79
2021/09/14 09:35:32;;;;;;;4.20;2.20;;;;;;;26.22;40.51;100822.70;115973;1201;21906;-81
2021/09/14 09:38:03;;;;;;;3.70;2.70;;;;;;;26.39;39.27;100818.26;115985;1196;21963;-80
2021/09/14 09:40:39;;;;;;;4.10;2.30;;;;;;;26.31;38.37;100814.64;115942;1201;21916;-81
2021/09/14 09:43:10;;;;;;;3.20;2.40;;;;;;;26.13;38.68;100816.34;115928;1201;21941;-80
2021/09/14 09:45:46;;;;;;;9.10;2.50;;;;;;;25.90;39.10;100812.27;115758;1201;21970;-82
2021/09/14 09:48:16;;;;;;;8.10;3.00;;;;;;;25.64;39.55;100809.91;115490;1196;21902;-80
2021/09/14 09:50:46;;;;;;;6.20;2.90;;;;;;;25.42;40.05;100816.73;115285;1197;22035;-79
2021/09/14 09:53:15;;;;;;;4.50;2.30;;;;;;;25.19;40.26;100807.89;115410;1201;21906;-79
2021/09/14 09:55:45;;;;;;;4.70;2.60;;;;;;;24.94;40.28;100804.60;115490;1201;23465;-79
2021/09/14 09:58:16;;;;;;;3.50;2.10;;;;;;;24.69;40.54;100804.99;115492;1200;21903;-79
2021/09/14 10:00:55;;;;;;;5.30;2.00;;;;;;;24.45;40.59;100799.41;115393;1201;21920;-80
2021/09/14 10:03:29;;;;;;;4.00;2.60;;;;;;;24.18;40.68;100798.41;115646;1203;21909;-80
2021/09/14 10:06:08;;;;;;;4.20;2.70;;;;;;;23.90;41.26;100797.17;115231;1203;21918;-79
2021/09/14 10:08:39;;;;;;;5.20;2.10;;;;;;;23.65;42.00;100794.79;115682;1201;22856;-80
2021/09/14 10:11:08;;;;;;;4.20;1.90;;;;;;;23.47;42.83;100792.64;115558;1201;21917;-79
2021/09/14 10:13:41;;;;;;;3.70;2.30;;;;;;;23.36;43.17;100793.27;115186;1200;22656;-80
2021/09/14 10:16:23;;;;;;;5.70;2.90;;;;;;;23.25;43.32;100794.60;115407;1203;22884;-80
2021/09/14 10:18:52;;;;;;;4.90;2.70;;;;;;;23.14;43.45;100795.05;115355;1201;23610;-80
2021/09/14 10:21:21;;;;;;;3.80;2.70;;;;;;;23.03;43.80;100795.80;115338;1204;21916;-80
2021/09/14 10:23:54;;;;;;;6.40;3.00;;;;;;;22.91;44.22;100792.20;115379;1202;22095;-80
2021/09/14 10:26:35;;;;;;;7.70;4.30;;;;;;;22.78;44.64;100794.73;115270;1202;21900;-79
2021/09/14 10:29:17;;;;;;;15.00;3.90;;;;;;;22.64;44.74;100793.24;115719;1198;23733;-80
2021/09/14 10:31:47;;;;;;;4.40;3.30;;;;;;;22.52;45.09;100790.14;115294;1204;21997;-80
2021/09/14 10:34:16;;;;;;;5.60;2.60;;;;;;;22.44;45.29;100792.02;115437;1200;22249;-80
2021/09/14 10:37:03;;;;;;;5.10;2.50;;;;;;;22.41;45.68;100792.01;115315;1202;21888;-81
2021/09/14 10:39:41;;;;;;;7.20;3.20;;;;;;;22.47;46.54;100792.88;115278;1202;21921;-79
2021/09/14 10:42:18;;;;;;;5.50;2.80;;;;;;;22.56;46.09;100792.59;115466;1201;23482;-79
2021/09/14 10:44:52;;;;;;;4.00;2.90;;;;;;;22.50;45.38;100794.56;115556;1203;22912;-80
2021/09/14 10:47:22;;;;;;;5.30;3.40;;;;;;;22.43;45.55;100797.27;115330;1198;24264;-81
2021/09/14 10:50:04;;;;;;;9.50;2.60;;;;;;;22.39;46.03;100797.17;115425;1200;21924;-80
2021/09/14 10:52:42;;;;;;;10.00;3.30;;;;;;;22.46;45.94;100796.20;115845;1200;21907;-81
2021/09/14 10:55:13;;;;;;;4.30;2.90;;;;;;;22.49;46.28;100792.46;115801;1198;23613;-80
2021/09/14 10:57:49;;;;;;;5.50;3.00;;;;;;;22.69;46.66;100796.37;116274;1198;22359;-80
2021/09/14 11:00:28;;;;;;;7.60;3.10;;;;;;;22.92;46.26;100799.19;115655;1200;22229;-79
2021/09/14 11:03:05;;;;;;;4.20;3.00;;;;;;;23.05;45.08;100797.08;115656;1201;21984;-81
2021/09/14 11:05:37;;;;;;;6.90;3.00;;;;;;;23.04;44.85;100793.83;115471;1201;23488;-82
2021/09/14 11:08:08;;;;;;;4.80;3.20;;;;;;;23.09;44.83;100793.13;115234;1202;23478;-80
2021/09/14 11:10:42;;;;;;;;;;;;;;;23.17;44.80;100790.80;115299;1204;23590;-81
2021/09/14 11:13:24;;;;;;;7.20;3.70;;;;;;;23.19;44.59;100787.77;115253;1201;24212;-81
2021/09/14 11:16:04;;;;;;;7.10;6.30;;;;;;;23.21;44.48;100788.81;115437;1201;21926;-81
2021/09/14 11:18:35;;;;;;;6.70;3.00;;;;;;;23.29;44.65;100790.27;115311;1201;21929;-80
2021/09/14 11:21:12;;;;;;;;;;;;;;;23.40;44.57;100785.94;115328;1205;23386;-80
2021/09/14 11:23:45;;;;;;;6.00;3.70;;;;;;;23.41;43.94;100782.56;115407;1201;23469;-81
2021/09/14 11:26:18;;;;;;;6.90;2.80;;;;;;;23.36;44.03;100783.83;115841;1201;23549;-80
2021/09/14 11:29:00;;;;;;;5.80;3.30;;;;;;;23.36;44.40;100780.10;115680;1201;21917;-80
2021/09/14 11:31:32;;;;;;;8.20;3.20;;;;;;;23.41;44.28;100777.87;114852;1204;21901;-80
2021/09/14 11:34:03;;;;;;;3.70;2.50;;;;;;;23.46;44.29;100775.32;115200;1200;23510;-81
2021/09/14 11:36:33;;;;;;;4.20;2.60;;;;;;;23.48;43.88;100775.73;115135;1206;22101;-80
2021/09/14 11:39:06;;;;;;;6.40;3.20;;;;;;;23.48;43.80;100775.18;115288;1202;21899;-84
2021/09/14 11:41:39;;;;;;;11.30;5.40;;;;;;;23.55;43.97;100772.98;115161;1205;23581;-80
2021/09/14 11:44:08;;;;;;;6.60;4.60;;;;;;;23.65;43.53;100771.55;115206;1202;21920;-80
2021/09/14 11:46:48;;;;;;;3.00;2.70;;;;;;;23.76;43.17;100770.35;115449;1202;21917;-80
2021/09/14 11:49:17;;;;;;;9.70;4.20;;;;;;;23.82;42.36;100767.20;115522;1198;21903;-82
2021/09/14 11:51:46;;;;;;;5.50;5.00;;;;;;;23.84;42.07;100765.41;115948;1199;21895;-80
2021/09/14 11:54:20;;;;;;;5.80;3.80;;;;;;;23.87;42.06;100761.98;115917;1195;22036;-79
2021/09/14 11:56:57;;;;;;;11.90;4.80;;;;;;;23.89;42.34;100763.77;115978;1200;23001;-77
2021/09/14 11:59:37;;;;;;;10.40;5.10;;;;;;;23.96;42.56;100764.67;115852;1200;21896;-76
2021/09/14 12:02:06;;;;;;;6.90;5.20;;;;;;;24.01;42.60;100757.95;115806;1200;21915;-77
2021/09/14 12:04:35;;;;;;;11.60;9.20;;;;;;;24.04;42.44;100757.29;115944;1198;22041;-77
2021/09/14 12:07:05;;;;;;;10.90;6.00;;;;;;;24.05;41.91;100756.55;115763;1200;21903;-77
2021/09/14 12:09:34;;;;;;;7.40;4.30;;;;;;;23.96;41.45;100758.58;115888;1197;21930;-76
2021/09/14 12:12:07;;;;;;;6.10;4.90;;;;;;;23.86;41.62;100761.83;115656;1195;21939;-77
2021/09/14 12:14:36;;;;;;;9.10;3.10;;;;;;;23.77;41.95;100755.85;115964;1198;21914;-77
2021/09/14 12:17:06;;;;;;;7.30;5.50;;;;;;;23.68;42.29;100752.90;115704;1200;24253;-77
2021/09/14 12:19:36;;;;;;;7.40;4.80;;;;;;;23.61;42.63;100753.84;115867;1198;22941;-77
2021/09/14 12:22:07;;;;;;;8.40;4.90;;;;;;;23.56;42.87;100752.89;115898;1200;22685;-77
2021/09/14 12:24:36;;;;;;;15.90;5.50;;;;;;;23.43;42.58;100757.30;115867;1197;22016;-77
2021/09/14 12:27:08;;;;;;;7.00;4.20;;;;;;;23.26;42.76;100759.80;115961;1199;23672;-78
2021/09/14 12:29:37;;;;;;;6.10;3.40;;;;;;;23.15;43.24;100759.76;115969;1198;23031;-78
2021/09/14 12:32:07;;;;;;;6.50;4.20;;;;;;;23.09;43.76;100759.42;115959;1200;23476;-76